Latest Weather Observations for Sheffield

IDT60801

Issued at 2:32 pm EST Friday 28 July 2017 (issued every 30 minutes, with the page automatically refreshed every 10 minutes)

About weather observations | Map of weather stations | Latest weather observations for TAS | Other Formats
Station Details ID: 091291 Name: SHEFFIELD SCHOOL FARM Lat: -41.39 Lon: 146.32 Height: 294.2 m
Data from the previous 72 hours. | See also: Recent months at Sheffield
Date/Time
EST
Temp
°C
App
Temp
°C
Dew
Point
°C
Rel
Hum
%
Delta-T
°C
Wind Press
QNH
hPa
Press
MSL
hPa
Rain since
9am
mm
Dir  Spd
km/h
Gust
km/h
Spd
kts
Gust
kts
28/02:30pm 10.9 4.2 3.5 60 3.3 WSW 28 39 15 21 1012.4 1013.0 0.0
28/02:00pm 11.0 5.7 4.9 66 2.8 W 22 33 12 18 1011.7 1012.3 0.0
28/01:30pm 11.2 6.7 4.2 62 3.2 WSW 17 22 9 12 1011.5 1012.1 0.0
28/01:00pm 11.1 6.3 4.8 65 2.9 W 19 26 10 14 1011.5 1012.1 0.0
28/12:30pm 11.2 6.2 4.7 64 3.0 W 20 30 11 16 1011.6 1012.2 0.0
28/12:00pm 11.5 7.9 5.2 65 2.9 W 13 24 7 13 1011.5 1012.1 0.0
28/11:30am 11.1 7.4 4.6 64 3.0 WSW 13 24 7 13 1011.6 1012.2 0.0
28/11:00am 10.7 6.7 5.0 68 2.6 W 15 26 8 14 1011.4 1012.0 0.0
28/10:30am 10.3 5.5 4.5 67 2.6 W 19 28 10 15 1011.1 1011.7 0.0
28/10:00am 9.4 6.2 5.0 74 2.0 NNW 11 19 6 10 1010.8 1011.4 0.0
28/09:30am 8.7 4.6 4.3 74 2.0 WNW 15 22 8 12 1010.7 1011.3 0.0
28/09:00am 8.1 5.6 3.8 74 1.9 W 6 17 3 9 1010.2 1010.8 18.6
28/08:30am 7.5 3.2 3.4 75 1.8 W 15 22 8 12 1009.6 1010.2 18.6
28/08:00am 7.3 3.0 3.4 76 1.7 WNW 15 24 8 13 1009.7 1010.3 18.6
28/07:30am 5.3 1.8 3.5 88 0.8 WNW 11 17 6 9 1009.4 1009.9 18.6
28/07:00am 4.6 1.0 2.8 88 0.7 NW 11 15 6 8 1008.9 1009.4 18.6
28/06:30am 5.5 2.1 4.2 91 0.6 NNW 11 15 6 8 1008.5 1009.0 18.6
28/06:00am 5.0 2.0 4.0 93 0.4 NNW 9 11 5 6 1008.1 1008.7 18.6
28/05:30am 5.2 2.7 4.6 96 0.3 NNW 7 9 4 5 1008.0 1008.6 18.4
28/05:00am 5.0 2.4 4.4 96 0.3 NNW 7 9 4 5 1008.0 1008.6 18.4
28/04:30am 4.9 2.4 4.5 97 0.2 NNW 7 9 4 5 1007.6 1008.2 18.4
28/04:00am 5.4 2.6 5.1 98 0.1 N 9 9 5 5 1007.3 1007.9 18.4
28/03:30am 5.5 2.7 5.2 98 0.1 N 9 11 5 6 1007.2 1007.8 18.4
28/03:00am 5.6 2.0 5.2 97 0.2 NNW 13 15 7 8 1007.1 1007.7 18.4
28/02:30am 6.2 3.2 5.8 97 0.2 NNW 11 15 6 8 1007.1 1007.7 18.4
28/02:00am 6.3 3.2 5.6 95 0.3 NNW 11 15 6 8 1006.8 1007.4 18.4
28/01:30am 6.8 3.0 5.9 94 0.4 NNW 15 19 8 10 1006.9 1007.5 18.4
28/01:00am 7.2 3.4 6.0 92 0.6 NNW 15 22 8 12 1006.9 1007.5 18.2
28/12:30am 7.6 3.5 6.2 91 0.6 NW 17 20 9 11 1007.1 1007.7 18.2
28/12:00am 8.0 4.4 6.8 92 0.6 NNW 15 22 8 12 1007.0 1007.6 18.2
 
Date/Time
EST
Temp
°C
App
Temp
°C
Dew
Point
°C
Rel
Hum
%
Delta-T
°C
Wind Press
QNH
hPa
Press
MSL
hPa
Rain since
9am
mm
Dir  Spd
km/h
Gust
km/h
Spd
kts
Gust
kts
27/11:30pm 8.1 2.0 6.6 90 0.7 NW 28 41 15 22 1007.5 1008.1 17.8
27/11:15pm 8.5 1.2 7.4 93 0.5 NW 35 54 19 29 1007.5 1008.1 17.8
27/11:00pm 8.8 1.7 8.0 95 0.4 NW 35 54 19 29 1007.6 1008.2 17.4
27/10:30pm 8.9 1.4 8.1 95 0.4 NNW 37 57 20 31 1007.3 1007.9 13.2
27/10:10pm 8.7 2.9 7.9 95 0.4 NNW 28 56 15 30 1007.7 1008.3 11.0
27/10:00pm 8.4 3.3 7.5 94 0.4 NW 24 39 13 21 1008.4 1008.9 9.4
27/09:38pm 8.4 0.0 7.5 94 0.4 NNW 41 59 22 32 1008.5 1009.0 6.6
27/09:30pm 8.6 -0.1 7.5 93 0.5 NNW 43 61 23 33 1008.4 1008.9 6.2
27/09:00pm 9.1 2.3 7.7 91 0.7 NNW 33 52 18 28 1009.0 1009.5 3.4
27/08:45pm 9.4 3.5 7.3 87 1.0 N 28 48 15 26 1009.0 1009.5 2.4
27/08:30pm 9.4 3.0 7.0 85 1.1 N 30 44 16 24 1009.4 1009.9 2.4
27/08:00pm 9.3 3.6 6.9 85 1.1 N 26 39 14 21 1010.0 1010.6 2.4
27/07:30pm 8.9 2.8 6.7 86 1.0 N 28 46 15 25 1010.5 1011.1 2.4
27/07:00pm 8.8 3.9 7.1 89 0.8 N 22 35 12 19 1010.7 1011.3 2.0
27/06:30pm 8.6 4.3 7.1 90 0.7 N 19 28 10 15 1011.2 1011.8 2.0
27/06:00pm 8.4 3.5 6.9 90 0.7 NNW 22 33 12 18 1011.7 1012.3 2.0
27/05:30pm 8.3 4.0 7.1 92 0.6 N 19 26 10 14 1012.1 1012.6 2.0
27/05:00pm 8.1 4.2 7.0 93 0.5 N 17 26 9 14 1012.5 1013.1 1.8
27/04:30pm 7.5 5.6 6.8 95 0.3 N 6 13 3 7 1012.9 1013.5 1.8
27/04:00pm 6.7 5.4 6.0 95 0.3 WSW 2 4 1 2 1013.3 1013.9 1.8
27/03:30pm 6.5 5.2 5.9 96 0.3 SE 2 2 1 1 1013.5 1014.1 1.8
27/03:00pm 5.8 3.9 5.1 95 0.3 SE 4 6 2 3 1013.9 1014.5 1.8
27/02:30pm 5.4 3.1 4.7 95 0.3 SE 6 9 3 5 1014.2 1014.8 1.8
27/02:00pm 5.1 2.7 4.2 94 0.4 SE 6 7 3 4 1015.0 1015.6 1.6
27/01:30pm 4.8 2.1 3.9 94 0.4 SE 7 9 4 5 1015.4 1016.1 1.6
27/01:00pm 4.8 2.1 3.6 92 0.5 SSE 7 9 4 5 1016.2 1016.8 0.8
27/12:30pm 4.9 2.3 3.2 89 0.7 SE 6 7 3 4 1016.9 1017.5 0.0
27/12:00pm 4.9 3.4 2.9 87 0.8 CALM 0 0 0 0 1017.5 1018.1 0.0
27/11:30am 4.7 2.3 2.4 85 0.9 S 4 6 2 3 1018.0 1018.7 0.0
27/11:00am 4.1 1.3 2.0 86 0.8 SE 6 7 3 4 1018.5 1019.2 0.0
27/10:30am 3.9 1.0 1.6 85 0.9 ESE 6 6 3 3 1018.8 1019.5 0.0
27/10:00am 3.8 2.1 2.0 88 0.7 CALM 0 0 0 0 1019.3 1019.9 0.0
27/09:30am 2.9 1.2 1.6 91 0.5 CALM 0 0 0 0 1019.4 1020.0 0.0
27/09:00am 2.4 0.6 1.2 92 0.5 CALM 0 0 0 0 1019.3 1019.9 0.2
27/08:30am 1.3 -0.6 0.3 93 0.4 CALM 0 0 0 0 1019.3 1019.9 0.2
27/08:00am 0.6 -1.8 -0.4 93 0.4 NW 2 4 1 2 1019.6 1020.2 0.0
27/07:30am 0.4 -2.8 -0.7 92 0.4 WNW 6 7 3 4 1019.5 1020.1 0.0
27/07:00am 0.7 -2.1 -0.3 93 0.4 N 4 6 2 3 1018.8 1019.5 0.0
27/06:30am 0.1 -2.4 -1.0 92 0.4 NNW 2 6 1 3 1018.8 1019.5 0.0
27/06:00am 0.1 -3.2 -0.9 93 0.4 NW 6 7 3 4 1019.2 1019.8 0.0
27/05:30am 0.1 -3.3 -0.7 94 0.3 WNW 7 9 4 5 1019.0 1019.7 0.0
27/05:00am -0.4 -4.3 -1.2 94 0.3 NW 9 9 5 5 1019.0 1019.7 0.0
27/04:30am 0.0 -3.3 -1.0 93 0.4 NNW 6 7 3 4 1019.2 1019.8 0.0
27/04:00am 0.6 -2.2 -0.5 92 0.4 N 4 6 2 3 1019.3 1019.9 0.0
27/03:30am 0.7 -2.1 -0.6 91 0.5 NW 4 6 2 3 1019.4 1020.0 0.0
27/03:00am 1.1 -2.3 -0.4 90 0.5 W 7 9 4 5 1019.7 1020.3 0.0
27/02:30am 1.3 -1.9 -0.5 88 0.7 W 6 9 3 5 1019.8 1020.4 0.0
27/02:00am 2.0 -1.7 -0.1 86 0.8 W 9 11 5 6 1020.1 1020.7 0.0
27/01:30am 2.0 -1.6 0.5 90 0.6 W 9 13 5 7 1020.0 1020.6 0.0
27/01:00am 1.0 -2.8 -0.5 90 0.5 W 9 11 5 6 1019.9 1020.5 0.0
27/12:30am 0.8 -3.5 -1.4 85 0.8 W 11 13 6 7 1020.0 1020.6 0.0
27/12:00am 2.0 -1.3 0.2 88 0.7 SW 7 11 4 6 1020.1 1020.7 0.0
 
Date/Time
EST
Temp
°C
App
Temp
°C
Dew
Point
°C
Rel
Hum
%
Delta-T
°C
Wind Press
QNH
hPa
Press
MSL
hPa
Rain since
9am
mm
Dir  Spd
km/h
Gust
km/h
Spd
kts
Gust
kts
26/11:30pm 1.4 -1.8 -0.2 89 0.6 WNW 6 7 3 4 1020.2 1020.8 0.0
26/11:00pm 1.8 -1.4 -0.4 85 0.8 WNW 6 6 3 3 1020.0 1020.6 0.0
26/10:30pm 2.3 0.3 -0.1 84 0.9 CALM 0 2 0 1 1019.7 1020.3 0.0
26/10:00pm 2.6 -0.1 0.0 83 1.0 WNW 4 7 2 4 1019.5 1020.1 0.0
26/09:30pm 3.3 0.1 -0.3 77 1.4 WNW 6 7 3 4 1019.2 1019.8 0.0
26/09:00pm 3.3 -0.4 -0.3 77 1.4 WNW 9 13 5 7 1019.0 1019.7 0.0
26/08:30pm 3.6 0.4 -0.6 74 1.6 W 6 7 3 4 1018.8 1019.5 0.0
26/08:00pm 3.8 0.4 -0.4 74 1.6 WSW 7 9 4 5 1018.3 1019.0 0.0
26/07:30pm 4.0 0.7 -0.2 74 1.6 W 7 11 4 6 1018.0 1018.7 0.0
26/07:00pm 3.6 0.1 -1.0 72 1.7 NW 7 9 4 5 1017.6 1018.2 0.0
26/06:30pm 4.4 1.2 -0.4 71 1.8 W 6 6 3 3 1017.2 1017.8 0.0
26/06:00pm 4.5 0.4 -0.3 71 1.8 WSW 11 15 6 8 1017.0 1017.6 0.0
26/05:30pm 5.2 1.0 -0.6 66 2.2 W 11 17 6 9 1016.5 1017.1 0.0
26/05:00pm 5.8 2.4 -0.7 63 2.5 W 7 11 4 6 1015.9 1016.5 0.0
26/04:30pm 7.1 1.4 -0.4 59 2.9 WSW 19 26 10 14 1015.6 1016.2 0.0
26/04:00pm 7.5 1.5 0.9 63 2.7 WSW 22 30 12 16 1015.1 1015.8 0.0
26/03:30pm 7.8 2.2 1.0 62 2.8 WSW 20 28 11 15 1014.3 1014.9 0.0
26/03:00pm 8.3 2.7 -0.2 55 3.4 SW 19 28 10 15 1013.8 1014.4 0.0
26/02:30pm 8.1 3.4 0.8 60 3.0 WSW 15 22 8 12 1013.5 1014.1 0.0
26/02:00pm 9.6 5.6 0.8 54 3.7 WSW 11 15 6 8 1012.9 1013.5 0.0
26/01:30pm 8.5 4.4 -0.3 54 3.5 SW 11 17 6 9 1012.5 1013.1 0.0
26/01:00pm 8.7 3.9 0.2 55 3.5 WSW 15 22 8 12 1012.1 1012.6 0.0
26/12:30pm 8.6 4.3 1.1 59 3.1 WSW 13 24 7 13 1011.7 1012.3 0.0
26/12:00pm 8.8 3.8 1.5 60 3.1 SW 17 26 9 14 1011.6 1012.2 0.0
26/11:30am 9.0 3.8 2.6 64 2.8 SW 19 26 10 14 1011.2 1011.8 0.0
26/11:00am 9.5 4.7 2.6 62 3.0 SW 17 22 9 12 1010.8 1011.4 0.0
26/10:30am 9.4 4.7 3.2 65 2.7 SW 17 24 9 13 1010.4 1011.0 0.0
26/10:00am 9.2 5.4 4.0 70 2.3 W 13 19 7 10 1009.6 1010.2 0.0
26/09:30am 9.3 5.4 3.5 67 2.6 WSW 13 19 7 10 1008.7 1009.2 0.0
26/09:00am 8.8 4.4 2.6 65 2.7 S 15 20 8 11 1007.7 1008.3 9.0
26/08:30am 8.3 4.0 3.0 69 2.3 SSE 15 22 8 12 1007.2 1007.8 9.0
26/08:00am 8.1 5.2 2.8 69 2.3 S 7 13 4 7 1006.6 1007.1 9.0
26/07:30am 7.5 4.3 3.2 74 1.9 SSW 9 19 5 10 1005.5 1006.0 9.0
26/07:00am 7.1 4.6 3.7 79 1.5 NW 6 11 3 6 1004.5 1005.1 9.0
26/06:30am 6.9 4.4 3.9 81 1.3 NW 6 9 3 5 1003.6 1004.1 9.0
26/06:00am 7.3 3.2 4.3 81 1.3 NW 15 24 8 13 1002.8 1003.3 9.0
26/05:30am 6.4 3.0 3.9 84 1.1 NNW 11 15 6 8 1002.2 1002.7 9.0
26/05:00am 6.4 2.2 3.9 84 1.1 WNW 15 22 8 12 1001.6 1002.1 9.0
26/04:30am 6.9 1.8 4.2 83 1.2 WNW 20 28 11 15 1001.5 1002.0 9.0
26/04:00am 7.0 1.9 4.3 83 1.2 WNW 20 30 11 16 1001.5 1002.0 9.0
26/03:30am 5.6 2.0 4.9 95 0.3 WNW 13 20 7 11 1001.5 1002.0 9.0
26/03:00am 5.6 3.3 4.7 94 0.4 NW 6 6 3 3 1001.7 1002.2 9.0
26/02:30am 6.1 3.9 5.1 93 0.4 W 6 9 3 5 1001.8 1002.3 9.0
26/02:00am 6.6 3.0 5.2 91 0.6 NW 13 15 7 8 1001.7 1002.2 9.0
26/01:30am 6.7 2.7 4.9 88 0.8 NW 15 19 8 10 1001.8 1002.3 9.0
26/01:00am 6.8 4.0 5.3 90 0.7 WNW 9 15 5 8 1002.0 1002.5 9.0
26/12:30am 7.4 4.1 6.3 93 0.5 WNW 13 28 7 15 1002.6 1003.1 8.8
26/12:00am 7.1 4.5 6.2 94 0.4 WNW 9 17 5 9 1003.4 1003.9 6.8
 
Date/Time
EST
Temp
°C
App
Temp
°C
Dew
Point
°C
Rel
Hum
%
Delta-T
°C
Wind Press
QNH
hPa
Press
MSL
hPa
Rain since
9am
mm
Dir  Spd
km/h
Gust
km/h
Spd
kts
Gust
kts
25/11:30pm 6.9 4.2 5.7 92 0.5 WNW 9 13 5 7 1003.4 1003.9 3.2
25/11:00pm 6.8 3.7 5.4 91 0.6 WNW 11 15 6 8 1003.4 1003.9 3.0
25/10:30pm 6.7 3.1 5.0 89 0.8 NW 13 17 7 9 1003.8 1004.4 3.0
25/10:00pm 6.6 3.4 4.9 89 0.8 NW 11 15 6 8 1004.1 1004.7 3.0
25/09:30pm 7.2 3.7 5.3 88 0.9 WNW 13 17 7 9 1004.9 1005.4 2.4
25/09:00pm 7.3 4.2 5.6 89 0.8 W 11 15 6 8 1004.9 1005.4 1.6
25/08:30pm 7.9 4.8 5.5 85 1.1 NW 11 17 6 9 1004.9 1005.4 0.4
25/08:00pm 7.4 4.2 5.2 86 1.0 NW 11 13 6 7 1005.3 1005.8 0.4
25/07:30pm 6.8 3.9 4.5 85 1.0 NW 9 13 5 7 1005.3 1005.8 0.4
25/07:00pm 7.8 4.2 4.9 82 1.3 NW 13 15 7 8 1005.4 1005.9 0.4
25/06:30pm 8.5 4.5 4.7 77 1.7 NW 15 20 8 11 1005.5 1006.0 0.4
25/06:00pm 9.3 5.3 5.1 75 1.9 WNW 15 20 8 11 1005.3 1005.8 0.4
25/05:30pm 9.3 5.0 5.3 76 1.8 WNW 17 22 9 12 1005.3 1005.8 0.4
25/05:00pm 9.6 5.4 5.6 76 1.9 WNW 17 26 9 14 1005.4 1005.9 0.4
25/04:30pm 10.3 5.8 6.3 76 1.9 WNW 19 24 10 13 1005.4 1005.9 0.4
25/04:00pm 10.5 7.7 7.0 79 1.7 NW 11 17 6 9 1005.4 1005.9 0.4
25/03:30pm 10.8 8.4 7.1 78 1.8 WNW 9 15 5 8 1005.7 1006.2 0.4
25/03:00pm 10.7 6.3 6.6 76 2.0 WNW 19 28 10 15 1005.6 1006.1 0.4

Other Formats:

Comma delimited format used in spreadsheet applications
http://www.bom.gov.au/fwo/IDT60801/IDT60801.94955.axf

JavaScript Object Notation format (JSON) in row-major order
http://www.bom.gov.au/fwo/IDT60801/IDT60801.94955.json